sensor_id;sensor_type;location;lat;lon;timestamp;temperature;humidity
64209;DHT22;50527;52.414;13.226;2022-12-26T00:00:26;9.20;99.90
64209;DHT22;50527;52.414;13.226;2022-12-26T00:02:51;9.30;99.90
64209;DHT22;50527;52.414;13.226;2022-12-26T00:05:17;9.30;99.90
64209;DHT22;50527;52.414;13.226;2022-12-26T00:07:42;9.30;99.90
64209;DHT22;50527;52.414;13.226;2022-12-26T00:10:08;9.30;99.90
64209;DHT22;50527;52.414;13.226;2022-12-26T00:12:34;9.40;99.90
64209;DHT22;50527;52.414;13.226;2022-12-26T00:14:59;9.40;99.90
64209;DHT22;50527;52.414;13.226;2022-12-26T00:17:25;9.40;99.90
64209;DHT22;50527;52.414;13.226;2022-12-26T00:19:50;9.40;99.90
64209;DHT22;50527;52.414;13.226;2022-12-26T00:22:16;9.40;99.90
64209;DHT22;50527;52.414;13.226;2022-12-26T00:24:42;9.40;99.90
64209;DHT22;50527;52.414;13.226;2022-12-26T00:27:08;9.40;99.90
64209;DHT22;50527;52.414;13.226;2022-12-26T00:29:33;9.40;99.90
64209;DHT22;50527;52.414;13.226;2022-12-26T00:31:58;9.40;99.90
64209;DHT22;50527;52.414;13.226;2022-12-26T00:34:24;9.40;99.90
64209;DHT22;50527;52.414;13.226;2022-12-26T00:36:49;9.40;99.90
64209;DHT22;50527;52.414;13.226;2022-12-26T00:39:15;9.40;99.90
64209;DHT22;50527;52.414;13.226;2022-12-26T00:41:41;9.50;99.90
64209;DHT22;50527;52.414;13.226;2022-12-26T00:44:07;9.50;99.90
64209;DHT22;50527;52.414;13.226;2022-12-26T00:46:32;9.50;99.90
64209;DHT22;50527;52.414;13.226;2022-12-26T00:48:58;9.40;99.90
64209;DHT22;50527;52.414;13.226;2022-12-26T00:51:24;9.40;99.90
64209;DHT22;50527;52.414;13.226;2022-12-26T00:53:50;9.50;99.90
64209;DHT22;50527;52.414;13.226;2022-12-26T00:56:15;9.50;99.90
64209;DHT22;50527;52.414;13.226;2022-12-26T00:58:41;9.50;99.90
64209;DHT22;50527;52.414;13.226;2022-12-26T01:01:14;9.50;99.90
64209;DHT22;50527;52.414;13.226;2022-12-26T01:03:41;9.50;99.90
64209;DHT22;50527;52.414;13.226;2022-12-26T01:06:07;9.60;99.90
64209;DHT22;50527;52.414;13.226;2022-12-26T01:08:32;9.50;99.90
64209;DHT22;50527;52.414;13.226;2022-12-26T01:11:02;9.50;99.90
64209;DHT22;50527;52.414;13.226;2022-12-26T01:13:29;9.50;99.90
64209;DHT22;50527;52.414;13.226;2022-12-26T01:15:54;9.50;99.90
64209;DHT22;50527;52.414;13.226;2022-12-26T01:18:20;9.60;99.90
64209;DHT22;50527;52.414;13.226;2022-12-26T01:20:46;9.60;99.90
64209;DHT22;50527;52.414;13.226;2022-12-26T01:23:12;9.60;99.90
64209;DHT22;50527;52.414;13.226;2022-12-26T01:25:38;9.60;99.90
64209;DHT22;50527;52.414;13.226;2022-12-26T01:28:04;9.60;99.90
64209;DHT22;50527;52.414;13.226;2022-12-26T01:30:30;9.60;99.90
64209;DHT22;50527;52.414;13.226;2022-12-26T01:32:56;9.60;99.90
64209;DHT22;50527;52.414;13.226;2022-12-26T01:35:21;9.60;99.90
64209;DHT22;50527;52.414;13.226;2022-12-26T01:37:47;9.60;99.90
64209;DHT22;50527;52.414;13.226;2022-12-26T01:40:12;9.60;99.90
64209;DHT22;50527;52.414;13.226;2022-12-26T01:42:39;9.70;99.90
64209;DHT22;50527;52.414;13.226;2022-12-26T01:45:30;9.60;99.90
64209;DHT22;50527;52.414;13.226;2022-12-26T01:52:56;9.60;99.90
64209;DHT22;50527;52.414;13.226;2022-12-26T01:55:22;9.50;99.90
64209;DHT22;50527;52.414;13.226;2022-12-26T01:57:54;9.60;99.90
64209;DHT22;50527;52.414;13.226;2022-12-26T02:00:20;9.50;99.90
64209;DHT22;50527;52.414;13.226;2022-12-26T02:02:46;9.50;99.90
64209;DHT22;50527;52.414;13.226;2022-12-26T02:05:31;9.60;99.90
64209;DHT22;50527;52.414;13.226;2022-12-26T02:08:14;9.60;99.90
64209;DHT22;50527;52.414;13.226;2022-12-26T02:11:04;9.60;99.90
64209;DHT22;50527;52.414;13.226;2022-12-26T02:13:34;9.60;99.90
64209;DHT22;50527;52.414;13.226;2022-12-26T02:16:01;9.70;99.90
64209;DHT22;50527;52.414;13.226;2022-12-26T02:18:27;9.70;99.90
64209;DHT22;50527;52.414;13.226;2022-12-26T02:21:09;9.70;99.90
64209;DHT22;50527;52.414;13.226;2022-12-26T02:24:25;9.70;99.90
64209;DHT22;50527;52.414;13.226;2022-12-26T02:27:09;9.70;99.90
64209;DHT22;50527;52.414;13.226;2022-12-26T02:30:06;9.70;99.90
64209;DHT22;50527;52.414;13.226;2022-12-26T02:32:44;9.70;99.90
64209;DHT22;50527;52.414;13.226;2022-12-26T02:38:17;9.70;99.90
64209;DHT22;50527;52.414;13.226;2022-12-26T02:44:48;9.80;99.90
64209;DHT22;50527;52.414;13.226;2022-12-26T02:47:54;9.80;99.90
64209;DHT22;50527;52.414;13.226;2022-12-26T02:50:49;9.80;99.90
64209;DHT22;50527;52.414;13.226;2022-12-26T02:54:03;9.90;99.90
64209;DHT22;50527;52.414;13.226;2022-12-26T02:56:52;9.90;99.90
64209;DHT22;50527;52.414;13.226;2022-12-26T02:59:51;10.00;99.90
64209;DHT22;50527;52.414;13.226;2022-12-26T03:02:56;10.00;99.90
64209;DHT22;50527;52.414;13.226;2022-12-26T03:05:49;10.00;99.90
64209;DHT22;50527;52.414;13.226;2022-12-26T03:08:45;10.00;99.90
64209;DHT22;50527;52.414;13.226;2022-12-26T03:11:34;10.00;99.90
64209;DHT22;50527;52.414;13.226;2022-12-26T03:14:26;10.00;99.90
64209;DHT22;50527;52.414;13.226;2022-12-26T03:16:58;10.00;99.90
64209;DHT22;50527;52.414;13.226;2022-12-26T03:19:44;10.10;99.90
64209;DHT22;50527;52.414;13.226;2022-12-26T03:22:30;10.10;99.90
64209;DHT22;50527;52.414;13.226;2022-12-26T03:25:02;10.10;99.90
64209;DHT22;50527;52.414;13.226;2022-12-26T03:27:46;10.10;99.90
64209;DHT22;50527;52.414;13.226;2022-12-26T03:30:12;10.10;99.90
64209;DHT22;50527;52.414;13.226;2022-12-26T03:32:57;10.10;99.90
64209;DHT22;50527;52.414;13.226;2022-12-26T03:35:23;10.10;99.90
64209;DHT22;50527;52.414;13.226;2022-12-26T03:38:03;10.10;99.90
64209;DHT22;50527;52.414;13.226;2022-12-26T03:40:52;10.10;99.90
64209;DHT22;50527;52.414;13.226;2022-12-26T03:43:47;10.10;99.90
64209;DHT22;50527;52.414;13.226;2022-12-26T03:49:32;10.20;99.90
64209;DHT22;50527;52.414;13.226;2022-12-26T03:52:25;10.20;99.90
64209;DHT22;50527;52.414;13.226;2022-12-26T03:58:22;10.20;99.90
64209;DHT22;50527;52.414;13.226;2022-12-26T04:01:13;10.30;99.90
64209;DHT22;50527;52.414;13.226;2022-12-26T04:04:00;10.20;99.90
64209;DHT22;50527;52.414;13.226;2022-12-26T04:06:50;10.20;99.90
64209;DHT22;50527;52.414;13.226;2022-12-26T04:09:50;10.20;99.90
64209;DHT22;50527;52.414;13.226;2022-12-26T04:12:36;10.20;99.90
64209;DHT22;50527;52.414;13.226;2022-12-26T04:15:37;10.20;99.90
64209;DHT22;50527;52.414;13.226;2022-12-26T04:18:28;10.20;99.90
64209;DHT22;50527;52.414;13.226;2022-12-26T04:21:19;10.30;99.90
64209;DHT22;50527;52.414;13.226;2022-12-26T04:24:11;10.20;99.90
64209;DHT22;50527;52.414;13.226;2022-12-26T04:27:00;10.30;99.90
64209;DHT22;50527;52.414;13.226;2022-12-26T04:29:46;10.20;99.90
64209;DHT22;50527;52.414;13.226;2022-12-26T04:32:38;10.20;99.90
64209;DHT22;50527;52.414;13.226;2022-12-26T04:35:48;10.30;99.90
64209;DHT22;50527;52.414;13.226;2022-12-26T04:38:37;10.40;99.90
64209;DHT22;50527;52.414;13.226;2022-12-26T04:41:23;10.40;99.90
64209;DHT22;50527;52.414;13.226;2022-12-26T04:44:09;10.20;99.90
64209;DHT22;50527;52.414;13.226;2022-12-26T04:46:41;10.30;99.90
64209;DHT22;50527;52.414;13.226;2022-12-26T04:49:09;10.20;99.90
64209;DHT22;50527;52.414;13.226;2022-12-26T04:52:08;10.20;99.90
64209;DHT22;50527;52.414;13.226;2022-12-26T04:54:33;10.10;99.90
64209;DHT22;50527;52.414;13.226;2022-12-26T04:56:59;10.10;99.90
64209;DHT22;50527;52.414;13.226;2022-12-26T04:59:25;10.20;99.90
64209;DHT22;50527;52.414;13.226;2022-12-26T05:01:50;10.10;99.90
64209;DHT22;50527;52.414;13.226;2022-12-26T05:04:34;10.20;99.90
64209;DHT22;50527;52.414;13.226;2022-12-26T05:07:23;10.20;99.90
64209;DHT22;50527;52.414;13.226;2022-12-26T05:10:16;10.20;99.90
64209;DHT22;50527;52.414;13.226;2022-12-26T05:12:42;10.20;99.90
64209;DHT22;50527;52.414;13.226;2022-12-26T05:15:08;10.20;99.90
64209;DHT22;50527;52.414;13.226;2022-12-26T05:17:34;10.30;99.90
64209;DHT22;50527;52.414;13.226;2022-12-26T05:20:18;10.30;99.90
64209;DHT22;50527;52.414;13.226;2022-12-26T05:23:02;10.30;99.90
64209;DHT22;50527;52.414;13.226;2022-12-26T05:25:47;10.20;99.90
64209;DHT22;50527;52.414;13.226;2022-12-26T05:28:32;10.30;99.90
64209;DHT22;50527;52.414;13.226;2022-12-26T05:31:14;10.30;99.90
64209;DHT22;50527;52.414;13.226;2022-12-26T05:33:40;10.30;99.90
64209;DHT22;50527;52.414;13.226;2022-12-26T05:36:28;10.30;99.90
64209;DHT22;50527;52.414;13.226;2022-12-26T05:38:54;10.30;99.90
64209;DHT22;50527;52.414;13.226;2022-12-26T05:41:21;10.40;99.90
64209;DHT22;50527;52.414;13.226;2022-12-26T05:43:46;10.30;99.90
64209;DHT22;50527;52.414;13.226;2022-12-26T05:46:12;10.40;99.90
64209;DHT22;50527;52.414;13.226;2022-12-26T05:48:38;10.30;99.90
64209;DHT22;50527;52.414;13.226;2022-12-26T05:51:03;10.30;99.90
64209;DHT22;50527;52.414;13.226;2022-12-26T05:53:30;10.30;99.90
64209;DHT22;50527;52.414;13.226;2022-12-26T05:56:04;10.40;99.90
64209;DHT22;50527;52.414;13.226;2022-12-26T05:58:30;10.40;99.90
64209;DHT22;50527;52.414;13.226;2022-12-26T06:01:13;10.40;99.90
64209;DHT22;50527;52.414;13.226;2022-12-26T06:03:40;10.40;99.90
64209;DHT22;50527;52.414;13.226;2022-12-26T06:06:07;10.40;99.90
64209;DHT22;50527;52.414;13.226;2022-12-26T06:08:33;10.40;99.90
64209;DHT22;50527;52.414;13.226;2022-12-26T06:11:02;10.40;99.90
64209;DHT22;50527;52.414;13.226;2022-12-26T06:13:27;10.40;99.90
64209;DHT22;50527;52.414;13.226;2022-12-26T06:15:53;10.40;99.90
64209;DHT22;50527;52.414;13.226;2022-12-26T06:18:18;10.40;99.90
64209;DHT22;50527;52.414;13.226;2022-12-26T06:20:44;10.30;99.90
64209;DHT22;50527;52.414;13.226;2022-12-26T06:23:09;10.40;99.90
64209;DHT22;50527;52.414;13.226;2022-12-26T06:25:35;10.30;99.90
64209;DHT22;50527;52.414;13.226;2022-12-26T06:28:00;10.30;99.90
64209;DHT22;50527;52.414;13.226;2022-12-26T06:30:26;10.30;99.90
64209;DHT22;50527;52.414;13.226;2022-12-26T06:32:51;10.30;99.90
64209;DHT22;50527;52.414;13.226;2022-12-26T06:35:16;10.20;99.90
64209;DHT22;50527;52.414;13.226;2022-12-26T06:37:42;10.20;99.90
64209;DHT22;50527;52.414;13.226;2022-12-26T06:40:08;10.20;99.90
64209;DHT22;50527;52.414;13.226;2022-12-26T06:42:34;10.20;99.90
64209;DHT22;50527;52.414;13.226;2022-12-26T06:44:59;10.20;99.90
64209;DHT22;50527;52.414;13.226;2022-12-26T06:47:24;10.10;99.90
64209;DHT22;50527;52.414;13.226;2022-12-26T06:49:50;10.10;99.90
64209;DHT22;50527;52.414;13.226;2022-12-26T06:52:15;10.10;99.90
64209;DHT22;50527;52.414;13.226;2022-12-26T06:54:41;10.00;99.90
64209;DHT22;50527;52.414;13.226;2022-12-26T06:57:06;10.10;99.90
64209;DHT22;50527;52.414;13.226;2022-12-26T06:59:32;10.10;99.90
64209;DHT22;50527;52.414;13.226;2022-12-26T07:01:57;10.10;99.90
64209;DHT22;50527;52.414;13.226;2022-12-26T07:04:23;10.20;99.90
64209;DHT22;50527;52.414;13.226;2022-12-26T07:06:49;10.20;99.90
64209;DHT22;50527;52.414;13.226;2022-12-26T07:09:17;10.20;99.90
64209;DHT22;50527;52.414;13.226;2022-12-26T07:11:44;10.20;99.90
64209;DHT22;50527;52.414;13.226;2022-12-26T07:14:10;10.20;99.90
64209;DHT22;50527;52.414;13.226;2022-12-26T07:16:38;10.20;99.90
64209;DHT22;50527;52.414;13.226;2022-12-26T07:19:04;10.20;99.90
64209;DHT22;50527;52.414;13.226;2022-12-26T07:21:29;10.20;99.90
64209;DHT22;50527;52.414;13.226;2022-12-26T07:23:55;10.30;99.90
64209;DHT22;50527;52.414;13.226;2022-12-26T07:26:21;10.20;99.90
64209;DHT22;50527;52.414;13.226;2022-12-26T07:28:47;10.20;99.90
64209;DHT22;50527;52.414;13.226;2022-12-26T07:31:17;10.20;99.90
64209;DHT22;50527;52.414;13.226;2022-12-26T07:33:49;10.20;99.90
64209;DHT22;50527;52.414;13.226;2022-12-26T07:36:15;10.10;99.90
64209;DHT22;50527;52.414;13.226;2022-12-26T07:38:41;10.10;99.90
64209;DHT22;50527;52.414;13.226;2022-12-26T07:41:06;10.20;99.90
64209;DHT22;50527;52.414;13.226;2022-12-26T07:43:51;10.20;99.90
64209;DHT22;50527;52.414;13.226;2022-12-26T07:46:16;10.10;99.90
64209;DHT22;50527;52.414;13.226;2022-12-26T07:48:42;10.10;99.90
64209;DHT22;50527;52.414;13.226;2022-12-26T07:51:08;10.20;99.90
64209;DHT22;50527;52.414;13.226;2022-12-26T07:53:33;10.20;99.90
64209;DHT22;50527;52.414;13.226;2022-12-26T07:55:59;10.20;99.90
64209;DHT22;50527;52.414;13.226;2022-12-26T07:58:24;10.20;99.90
64209;DHT22;50527;52.414;13.226;2022-12-26T08:00:50;10.20;99.90
64209;DHT22;50527;52.414;13.226;2022-12-26T08:03:15;10.30;99.90
64209;DHT22;50527;52.414;13.226;2022-12-26T08:05:47;10.30;99.90
64209;DHT22;50527;52.414;13.226;2022-12-26T08:08:13;10.30;99.90
64209;DHT22;50527;52.414;13.226;2022-12-26T08:10:40;10.30;99.90
64209;DHT22;50527;52.414;13.226;2022-12-26T08:13:05;10.40;99.90
64209;DHT22;50527;52.414;13.226;2022-12-26T08:15:31;10.40;99.90
64209;DHT22;50527;52.414;13.226;2022-12-26T08:17:56;10.40;99.90
64209;DHT22;50527;52.414;13.226;2022-12-26T08:20:22;10.40;99.90
64209;DHT22;50527;52.414;13.226;2022-12-26T08:22:47;10.40;99.90
64209;DHT22;50527;52.414;13.226;2022-12-26T08:25:13;10.40;99.90
64209;DHT22;50527;52.414;13.226;2022-12-26T08:27:39;10.50;99.90
64209;DHT22;50527;52.414;13.226;2022-12-26T08:30:05;10.50;99.90
64209;DHT22;50527;52.414;13.226;2022-12-26T08:32:31;10.50;99.90
64209;DHT22;50527;52.414;13.226;2022-12-26T08:34:56;10.60;99.90
64209;DHT22;50527;52.414;13.226;2022-12-26T08:37:22;10.60;99.90
64209;DHT22;50527;52.414;13.226;2022-12-26T08:39:50;10.60;99.90
64209;DHT22;50527;52.414;13.226;2022-12-26T08:42:22;10.60;99.90
64209;DHT22;50527;52.414;13.226;2022-12-26T08:44:47;10.60;99.90
64209;DHT22;50527;52.414;13.226;2022-12-26T08:47:13;10.60;99.90
64209;DHT22;50527;52.414;13.226;2022-12-26T08:49:39;10.70;99.90
64209;DHT22;50527;52.414;13.226;2022-12-26T08:52:06;10.60;99.90
64209;DHT22;50527;52.414;13.226;2022-12-26T08:54:32;10.60;99.90
64209;DHT22;50527;52.414;13.226;2022-12-26T08:56:58;10.60;99.90
64209;DHT22;50527;52.414;13.226;2022-12-26T08:59:23;10.60;99.90
64209;DHT22;50527;52.414;13.226;2022-12-26T09:01:49;10.60;99.90
64209;DHT22;50527;52.414;13.226;2022-12-26T09:04:14;10.60;99.90
64209;DHT22;50527;52.414;13.226;2022-12-26T09:06:40;10.60;99.90
64209;DHT22;50527;52.414;13.226;2022-12-26T09:09:07;10.60;99.90
64209;DHT22;50527;52.414;13.226;2022-12-26T09:11:35;10.70;99.90
64209;DHT22;50527;52.414;13.226;2022-12-26T09:14:02;10.70;99.90
64209;DHT22;50527;52.414;13.226;2022-12-26T09:16:32;10.70;99.90
64209;DHT22;50527;52.414;13.226;2022-12-26T09:19:00;10.70;99.90
64209;DHT22;50527;52.414;13.226;2022-12-26T09:21:28;10.70;99.90
64209;DHT22;50527;52.414;13.226;2022-12-26T09:24:02;10.70;99.90
64209;DHT22;50527;52.414;13.226;2022-12-26T09:26:28;10.70;99.90
64209;DHT22;50527;52.414;13.226;2022-12-26T09:28:54;10.80;99.90
64209;DHT22;50527;52.414;13.226;2022-12-26T09:31:22;10.80;99.90
64209;DHT22;50527;52.414;13.226;2022-12-26T09:33:48;10.80;99.90
64209;DHT22;50527;52.414;13.226;2022-12-26T09:36:16;10.90;99.90
64209;DHT22;50527;52.414;13.226;2022-12-26T09:38:43;10.90;99.90
64209;DHT22;50527;52.414;13.226;2022-12-26T09:44:16;10.90;99.90
64209;DHT22;50527;52.414;13.226;2022-12-26T09:52:49;11.10;99.90
64209;DHT22;50527;52.414;13.226;2022-12-26T09:55:36;11.10;99.90
64209;DHT22;50527;52.414;13.226;2022-12-26T09:58:30;11.10;99.90
64209;DHT22;50527;52.414;13.226;2022-12-26T10:03:41;11.20;99.90
64209;DHT22;50527;52.414;13.226;2022-12-26T10:17:23;11.30;99.90
64209;DHT22;50527;52.414;13.226;2022-12-26T10:20:15;11.30;99.90
64209;DHT22;50527;52.414;13.226;2022-12-26T10:25:46;11.20;99.90
64209;DHT22;50527;52.414;13.226;2022-12-26T10:28:17;11.20;99.90
64209;DHT22;50527;52.414;13.226;2022-12-26T10:30:47;11.20;99.90
64209;DHT22;50527;52.414;13.226;2022-12-26T10:33:23;11.20;99.90
64209;DHT22;50527;52.414;13.226;2022-12-26T10:35:52;11.20;99.90
64209;DHT22;50527;52.414;13.226;2022-12-26T10:38:28;11.10;99.90
64209;DHT22;50527;52.414;13.226;2022-12-26T10:41:02;11.10;99.90
64209;DHT22;50527;52.414;13.226;2022-12-26T10:43:32;11.10;99.90
64209;DHT22;50527;52.414;13.226;2022-12-26T10:46:35;11.00;99.90
64209;DHT22;50527;52.414;13.226;2022-12-26T10:49:08;11.00;99.90
64209;DHT22;50527;52.414;13.226;2022-12-26T10:51:34;11.00;99.90
64209;DHT22;50527;52.414;13.226;2022-12-26T10:54:02;11.00;99.90
64209;DHT22;50527;52.414;13.226;2022-12-26T10:56:29;11.00;99.90
64209;DHT22;50527;52.414;13.226;2022-12-26T10:59:03;11.00;99.90
64209;DHT22;50527;52.414;13.226;2022-12-26T11:01:36;11.00;99.90
64209;DHT22;50527;52.414;13.226;2022-12-26T11:04:14;10.90;99.90
64209;DHT22;50527;52.414;13.226;2022-12-26T11:06:41;10.90;99.90
64209;DHT22;50527;52.414;13.226;2022-12-26T11:09:41;10.80;99.90
64209;DHT22;50527;52.414;13.226;2022-12-26T11:12:19;10.80;99.90
64209;DHT22;50527;52.414;13.226;2022-12-26T11:14:45;10.80;99.90
64209;DHT22;50527;52.414;13.226;2022-12-26T11:17:23;10.80;99.90
64209;DHT22;50527;52.414;13.226;2022-12-26T11:19:51;10.80;99.90
64209;DHT22;50527;52.414;13.226;2022-12-26T11:22:32;10.70;99.90
64209;DHT22;50527;52.414;13.226;2022-12-26T11:27:35;10.70;99.90
64209;DHT22;50527;52.414;13.226;2022-12-26T11:32:38;10.70;99.90
64209;DHT22;50527;52.414;13.226;2022-12-26T11:35:04;10.70;99.90
64209;DHT22;50527;52.414;13.226;2022-12-26T11:37:39;10.70;99.90
64209;DHT22;50527;52.414;13.226;2022-12-26T11:40:18;10.70;99.90
64209;DHT22;50527;52.414;13.226;2022-12-26T11:42:50;10.60;99.90
64209;DHT22;50527;52.414;13.226;2022-12-26T11:45:21;10.70;99.90
64209;DHT22;50527;52.414;13.226;2022-12-26T11:47:48;10.70;99.90
64209;DHT22;50527;52.414;13.226;2022-12-26T11:50:15;10.70;99.90
64209;DHT22;50527;52.414;13.226;2022-12-26T11:53:06;10.70;99.90
64209;DHT22;50527;52.414;13.226;2022-12-26T11:55:37;10.80;99.90
64209;DHT22;50527;52.414;13.226;2022-12-26T11:58:28;10.90;99.90
64209;DHT22;50527;52.414;13.226;2022-12-26T12:06:25;10.80;99.90
64209;DHT22;50527;52.414;13.226;2022-12-26T12:09:01;10.80;99.90
64209;DHT22;50527;52.414;13.226;2022-12-26T12:17:22;10.70;99.90
64209;DHT22;50527;52.414;13.226;2022-12-26T12:22:51;10.70;99.90
64209;DHT22;50527;52.414;13.226;2022-12-26T12:25:40;10.70;99.90
64209;DHT22;50527;52.414;13.226;2022-12-26T12:31:19;10.60;99.90
64209;DHT22;50527;52.414;13.226;2022-12-26T12:34:16;10.60;99.90
64209;DHT22;50527;52.414;13.226;2022-12-26T12:37:03;10.60;99.90
64209;DHT22;50527;52.414;13.226;2022-12-26T12:45:29;10.70;99.90
64209;DHT22;50527;52.414;13.226;2022-12-26T12:51:13;10.80;99.90
64209;DHT22;50527;52.414;13.226;2022-12-26T12:54:00;10.80;99.90
64209;DHT22;50527;52.414;13.226;2022-12-26T12:56:55;10.80;99.90
64209;DHT22;50527;52.414;13.226;2022-12-26T13:01:50;10.80;99.90
64209;DHT22;50527;52.414;13.226;2022-12-26T13:04:23;10.80;99.90
64209;DHT22;50527;52.414;13.226;2022-12-26T13:06:55;10.80;99.90
64209;DHT22;50527;52.414;13.226;2022-12-26T13:09:28;10.80;99.90
64209;DHT22;50527;52.414;13.226;2022-12-26T13:12:04;10.80;99.90
64209;DHT22;50527;52.414;13.226;2022-12-26T13:15:34;10.80;99.90
64209;DHT22;50527;52.414;13.226;2022-12-26T13:17:46;10.80;99.90
64209;DHT22;50527;52.414;13.226;2022-12-26T13:20:17;10.90;99.90
64209;DHT22;50527;52.414;13.226;2022-12-26T13:22:48;10.90;99.90
64209;DHT22;50527;52.414;13.226;2022-12-26T13:25:39;10.80;99.90
64209;DHT22;50527;52.414;13.226;2022-12-26T13:28:10;10.80;99.90
64209;DHT22;50527;52.414;13.226;2022-12-26T13:30:37;10.80;99.90
64209;DHT22;50527;52.414;13.226;2022-12-26T13:33:04;10.70;99.90
64209;DHT22;50527;52.414;13.226;2022-12-26T13:36:05;10.70;99.90
64209;DHT22;50527;52.414;13.226;2022-12-26T13:41:20;10.70;99.90
64209;DHT22;50527;52.414;13.226;2022-12-26T13:44:07;10.60;99.90
64209;DHT22;50527;52.414;13.226;2022-12-26T13:49:32;10.50;99.90
64209;DHT22;50527;52.414;13.226;2022-12-26T13:55:16;10.40;99.90
64209;DHT22;50527;52.414;13.226;2022-12-26T13:57:44;10.40;99.90
64209;DHT22;50527;52.414;13.226;2022-12-26T14:00:16;10.30;99.90
64209;DHT22;50527;52.414;13.226;2022-12-26T14:03:22;10.30;99.90
64209;DHT22;50527;52.414;13.226;2022-12-26T14:09:06;10.20;99.90
64209;DHT22;50527;52.414;13.226;2022-12-26T14:14:15;10.20;99.90
64209;DHT22;50527;52.414;13.226;2022-12-26T14:17:05;10.20;99.90
64209;DHT22;50527;52.414;13.226;2022-12-26T14:19:50;10.10;99.90
64209;DHT22;50527;52.414;13.226;2022-12-26T14:22:53;10.20;99.90
64209;DHT22;50527;52.414;13.226;2022-12-26T14:25:29;10.10;99.90
64209;DHT22;50527;52.414;13.226;2022-12-26T14:28:24;10.20;99.90
64209;DHT22;50527;52.414;13.226;2022-12-26T14:30:55;10.10;99.90
64209;DHT22;50527;52.414;13.226;2022-12-26T14:33:44;10.10;99.90
64209;DHT22;50527;52.414;13.226;2022-12-26T14:39:21;10.00;99.90
64209;DHT22;50527;52.414;13.226;2022-12-26T14:44:57;9.90;99.90
64209;DHT22;50527;52.414;13.226;2022-12-26T14:53:30;9.80;99.90
64209;DHT22;50527;52.414;13.226;2022-12-26T14:58:38;9.70;99.90
64209;DHT22;50527;52.414;13.226;2022-12-26T15:03:42;9.80;99.90
64209;DHT22;50527;52.414;13.226;2022-12-26T15:15:00;10.00;99.90
64209;DHT22;50527;52.414;13.226;2022-12-26T15:23:31;10.00;99.90
64209;DHT22;50527;52.414;13.226;2022-12-26T15:31:24;10.00;99.90
64209;DHT22;50527;52.414;13.226;2022-12-26T15:34:29;10.00;99.90
64209;DHT22;50527;52.414;13.226;2022-12-26T15:37:24;10.00;99.90
64209;DHT22;50527;52.414;13.226;2022-12-26T15:40:15;9.90;99.90
64209;DHT22;50527;52.414;13.226;2022-12-26T15:43:02;9.90;99.90
64209;DHT22;50527;52.414;13.226;2022-12-26T15:46:00;9.90;99.90
64209;DHT22;50527;52.414;13.226;2022-12-26T15:48:51;9.90;99.90
64209;DHT22;50527;52.414;13.226;2022-12-26T15:51:46;9.80;99.90
64209;DHT22;50527;52.414;13.226;2022-12-26T15:54:29;9.80;99.90
64209;DHT22;50527;52.414;13.226;2022-12-26T16:10:34;9.90;99.90
64209;DHT22;50527;52.414;13.226;2022-12-26T16:15:31;9.90;99.90
64209;DHT22;50527;52.414;13.226;2022-12-26T16:18:15;10.00;99.90
64209;DHT22;50527;52.414;13.226;2022-12-26T16:20:42;10.00;99.90
64209;DHT22;50527;52.414;13.226;2022-12-26T16:23:29;10.00;99.90
64209;DHT22;50527;52.414;13.226;2022-12-26T16:25:57;9.90;99.90
64209;DHT22;50527;52.414;13.226;2022-12-26T16:28:33;9.90;99.90
64209;DHT22;50527;52.414;13.226;2022-12-26T16:30:59;9.90;99.90
64209;DHT22;50527;52.414;13.226;2022-12-26T16:33:33;9.90;99.90
64209;DHT22;50527;52.414;13.226;2022-12-26T16:35:59;9.90;99.90
64209;DHT22;50527;52.414;13.226;2022-12-26T16:38:28;9.90;99.90
64209;DHT22;50527;52.414;13.226;2022-12-26T16:40:54;9.90;99.90
64209;DHT22;50527;52.414;13.226;2022-12-26T16:43:22;9.90;99.90
64209;DHT22;50527;52.414;13.226;2022-12-26T16:45:58;9.90;99.90
64209;DHT22;50527;52.414;13.226;2022-12-26T16:48:28;9.90;99.90
64209;DHT22;50527;52.414;13.226;2022-12-26T16:51:00;9.90;99.90
64209;DHT22;50527;52.414;13.226;2022-12-26T16:56:24;10.00;99.90
64209;DHT22;50527;52.414;13.226;2022-12-26T16:59:04;9.90;99.90
64209;DHT22;50527;52.414;13.226;2022-12-26T17:01:30;9.90;99.90
64209;DHT22;50527;52.414;13.226;2022-12-26T17:04:01;10.00;99.90
64209;DHT22;50527;52.414;13.226;2022-12-26T17:06:28;10.00;99.90
64209;DHT22;50527;52.414;13.226;2022-12-26T17:08:55;10.00;99.90
64209;DHT22;50527;52.414;13.226;2022-12-26T17:11:27;10.00;99.90
64209;DHT22;50527;52.414;13.226;2022-12-26T17:13:54;10.00;99.90
64209;DHT22;50527;52.414;13.226;2022-12-26T17:16:22;10.00;99.90
64209;DHT22;50527;52.414;13.226;2022-12-26T17:18:51;9.90;99.90
64209;DHT22;50527;52.414;13.226;2022-12-26T17:21:29;9.90;99.90
64209;DHT22;50527;52.414;13.226;2022-12-26T17:24:23;9.90;99.90
64209;DHT22;50527;52.414;13.226;2022-12-26T17:26:51;10.00;99.90
64209;DHT22;50527;52.414;13.226;2022-12-26T17:29:44;9.90;99.90
64209;DHT22;50527;52.414;13.226;2022-12-26T17:32:13;9.80;99.90
64209;DHT22;50527;52.414;13.226;2022-12-26T17:34:38;9.80;99.90
64209;DHT22;50527;52.414;13.226;2022-12-26T17:37:04;9.80;99.90
64209;DHT22;50527;52.414;13.226;2022-12-26T17:39:30;9.80;99.90
64209;DHT22;50527;52.414;13.226;2022-12-26T17:42:00;9.70;99.90
64209;DHT22;50527;52.414;13.226;2022-12-26T17:44:34;9.70;99.90
64209;DHT22;50527;52.414;13.226;2022-12-26T17:47:18;9.60;99.90
64209;DHT22;50527;52.414;13.226;2022-12-26T17:49:44;9.50;99.90
64209;DHT22;50527;52.414;13.226;2022-12-26T17:52:12;9.50;99.90
64209;DHT22;50527;52.414;13.226;2022-12-26T17:54:38;9.40;99.90
64209;DHT22;50527;52.414;13.226;2022-12-26T17:57:03;9.30;99.90
64209;DHT22;50527;52.414;13.226;2022-12-26T17:59:29;9.30;99.90
64209;DHT22;50527;52.414;13.226;2022-12-26T18:01:54;9.40;99.90
64209;DHT22;50527;52.414;13.226;2022-12-26T18:04:20;9.30;99.90
64209;DHT22;50527;52.414;13.226;2022-12-26T18:06:45;9.30;99.90
64209;DHT22;50527;52.414;13.226;2022-12-26T18:09:25;9.40;99.90
64209;DHT22;50527;52.414;13.226;2022-12-26T18:11:51;9.40;99.90
64209;DHT22;50527;52.414;13.226;2022-12-26T18:14:18;9.40;99.90
64209;DHT22;50527;52.414;13.226;2022-12-26T18:16:43;9.40;99.90
64209;DHT22;50527;52.414;13.226;2022-12-26T18:19:16;9.40;99.90
64209;DHT22;50527;52.414;13.226;2022-12-26T18:21:42;9.40;99.90
64209;DHT22;50527;52.414;13.226;2022-12-26T18:24:08;9.30;99.90
64209;DHT22;50527;52.414;13.226;2022-12-26T18:26:34;9.30;99.90
64209;DHT22;50527;52.414;13.226;2022-12-26T18:29:00;9.20;99.90